Paradise Logo Paradise Logo
Schedule Standings Team Stats Stats Want to Join?
2012 Statistics
Name Chris Power
Team Complete Tire


Game By Game
Opponent Date Time Result Order PA AB Runs Hits 1B 2B 3B HR BB Sac RBI Avg
The Misfits 6/10/2012 05:00 10-2(W) 7 3 3 0 1 1 0 0 0 0 0 0 .333
The Misfits 6/10/2012 06:15 17-21(W) 7 4 4 1 3 1 2 0 0 0 0 0 .571
Premium Paving Ltd 6/17/2012 05:00 18-25(L) 2 5 5 4 3 2 1 0 0 0 0 0 .583
Premium Paving Ltd 6/17/2012 06:15 13-15(W) 2 4 4 3 3 3 0 0 0 0 0 0 .625
The Duke 6/19/2012 09:30 15-9(W) 2 3 3 2 2 2 0 0 0 0 0 0 .632
The Duke 6/20/2012 09:30 9-22(W) 2 4 4 3 4 4 0 0 0 0 0 0 .696
The Duke 7/10/2012 09:30 13-15(L) 2 4 4 1 1 0 1 0 0 0 0 0 .630
The Duke 7/11/2012 09:30 21-20(L) 10 4 4 2 3 3 0 0 0 0 0 0 .645
Premium Paving Ltd 7/15/2012 07:30 7-13(W) 8 4 4 1 1 1 0 0 0 0 0 0 .600
Premium Paving Ltd 7/15/2012 08:45 12-14(W) 5 4 4 1 2 2 0 0 0 0 0 0 .590
Hickey's Timber Mart 7/29/2012 07:30 12-14(W) 5 5 5 1 5 5 0 0 0 0 0 0 .636
Hickey's Timber Mart 7/29/2012 08:45 14-23(L) 7 4 4 2 2 1 0 1 0 0 0 0 .625
Freshwater Auto Center 8/5/2012 05:00 15-17(W) 6 5 4 1 2 2 0 0 0 0 1 0 .615
Freshwater Auto Center 8/5/2012 06:15 11-19(L) 4 5 5 2 2 0 1 1 0 0 0 0 .596
The Misfits 8/12/2012 05:00 13-10(L) 2 5 5 1 2 1 1 0 0 0 0 0 .581
The Misfits 8/12/2012 06:15 12-11(W) 6 4 3 2 2 1 1 0 0 0 1 0 .585
Premium Paving Ltd 8/14/2012 09:30 21-27(L) 2 5 5 1 2 2 0 0 0 0 0 0 .571
The Duke 8/19/2012 08:45 10-15(L) 1 4 4 1 1 1 0 0 0 0 0 0 .554
Freshwater Auto Center 8/21/2012 09:30 5-7(W) 3 3 3 1 1 0 1 0 0 0 0 0 .545
Hickey's Timber Mart 9/4/2012 09:30 15-27(W) 8 5 5 1 3 2 0 1 0 0 0 0 .549
The Misfits 9/9/2012 06:15 7-16(L) 2 4 4 0 2 1 1 0 0 0 0 0 .547


Season Totals
Season Gm PA AB Runs Hits 1B 2B 3B HR BB Sac RBI Avg Obp Slg
2018 14 59 56 27 42 34 5 2 1 1 2 27 .750 .729 .964
2017 18 79 77 34 56 48 7 1 0 2 0 .727 .734 .844
2016 21 72 71 25 40 30 8 1 1 1 0 0 .563 .569 .746
2015 18 64 60 19 33 27 4 2 0 3 1 0 .550 .563 .683
2014 14 54 52 14 33 30 2 1 0 1 0 0 .635 .630 .712
2013 8 34 32 10 19 12 6 1 0 0 2 0 .594 .559 .844
2012 21 88 86 31 47 35 9 3 0 0 2 0 .547 .534 .721
2011 19 75 70 31 37 28 8 1 0 4 1 0 .529 .547 .671